createdAt,value
2018-09-03T00:00:03.805Z,43.60
2018-09-03T00:01:03.528Z,43.43
2018-09-03T00:02:03.562Z,43.52
2018-09-03T00:03:03.651Z,43.72
2018-09-03T00:04:03.681Z,43.70
2018-09-03T00:05:03.665Z,43.79
2018-09-03T00:06:03.999Z,43.70
2018-09-03T00:07:03.737Z,43.72
2018-09-03T00:08:03.813Z,43.82
2018-09-03T00:09:03.847Z,43.72
2018-09-03T00:10:03.882Z,43.82
2018-09-03T00:11:03.908Z,43.82
2018-09-03T00:12:03.893Z,43.62
2018-09-03T00:13:04.225Z,43.82
2018-09-03T00:14:03.960Z,43.62
2018-09-03T00:15:04.004Z,43.70
2018-09-03T00:16:04.079Z,43.70
2018-09-03T00:17:04.059Z,44.09
2018-09-03T00:18:04.149Z,43.91
2018-09-03T00:19:04.131Z,44.40
2018-09-03T00:20:04.461Z,44.01
2018-09-03T00:21:04.188Z,43.91
2018-09-03T00:22:04.279Z,43.91
2018-09-03T00:23:04.261Z,43.89
2018-09-03T00:24:04.297Z,44.10
2018-09-03T00:25:04.376Z,43.91
2018-09-03T00:26:04.354Z,44.10
2018-09-03T00:27:04.690Z,44.01
2018-09-03T00:28:04.426Z,44.30
2018-09-03T00:29:04.459Z,44.37
2018-09-03T00:30:04.489Z,44.57
2018-09-03T00:31:04.533Z,44.57
2018-09-03T00:32:04.606Z,44.37
2018-09-03T00:33:04.595Z,44.27
2018-09-03T00:34:04.926Z,44.57
2018-09-03T00:35:04.684Z,44.47
2018-09-03T00:36:04.734Z,44.47
2018-09-03T00:37:04.776Z,44.47
2018-09-03T00:38:04.808Z,44.57
2018-09-03T00:39:04.797Z,44.57
2018-09-03T00:40:04.831Z,44.49
2018-09-03T00:41:05.161Z,44.47
2018-09-03T00:42:04.893Z,44.47
2018-09-03T00:43:04.968Z,44.37
2018-09-03T00:44:05.010Z,44.37
2018-09-03T00:45:04.990Z,44.47
2018-09-03T00:46:05.039Z,44.47
2018-09-03T00:47:05.053Z,44.57
2018-09-03T00:48:05.388Z,44.67
2018-09-03T00:49:05.167Z,44.27
2018-09-03T00:50:05.204Z,44.47
2018-09-03T00:51:05.183Z,44.57
2018-09-03T00:52:05.220Z,44.47
2018-09-03T00:53:05.306Z,44.57
2018-09-03T00:54:05.336Z,44.18
2018-09-03T00:55:05.630Z,44.27
2018-09-03T00:56:05.350Z,44.27
2018-09-03T00:57:05.383Z,44.37
2018-09-03T00:58:05.465Z,44.27
2018-09-03T00:59:05.447Z,44.27
2018-09-03T01:00:05.538Z,44.27
2018-09-03T01:01:05.515Z,44.47
2018-09-03T01:02:05.849Z,44.47
2018-09-03T01:03:05.583Z,44.47
2018-09-03T01:04:05.620Z,44.67
2018-09-03T01:05:05.699Z,44.57
2018-09-03T01:06:05.734Z,44.67
2018-09-03T01:07:05.761Z,44.47
2018-09-03T01:08:05.755Z,44.76
2018-09-03T01:09:06.080Z,44.67
2018-09-03T01:10:05.864Z,44.76
2018-09-03T01:11:05.847Z,44.67
2018-09-03T01:12:05.924Z,44.47
2018-09-03T01:13:05.911Z,44.47
2018-09-03T01:14:05.965Z,44.67
2018-09-03T01:15:06.043Z,44.57
2018-09-03T01:16:06.317Z,44.76
2018-09-03T01:17:06.038Z,44.67
2018-09-03T01:18:06.082Z,44.67
2018-09-03T01:19:06.167Z,44.86
2018-09-03T01:20:06.194Z,44.67
2018-09-03T01:21:06.172Z,44.86
2018-09-03T01:23:06.296Z,44.67
2018-09-03T01:24:06.574Z,44.96
2018-09-03T01:25:06.352Z,45.05
2018-09-03T01:26:06.403Z,45.25
2018-09-03T01:27:06.374Z,45.05
2018-09-03T01:28:06.407Z,45.15
2018-09-03T01:30:06.529Z,45.34
2018-09-03T01:31:06.806Z,45.34
2018-09-03T01:32:06.586Z,45.25
2018-09-03T01:33:06.576Z,45.34
2018-09-03T01:35:06.690Z,45.15
2018-09-03T01:36:06.674Z,45.05
2018-09-03T01:37:06.756Z,45.05
2018-09-03T01:38:06.786Z,45.15
2018-09-03T01:39:06.773Z,45.44
2018-09-03T01:40:06.800Z,45.44
2018-09-03T01:41:06.833Z,45.54
2018-09-03T01:42:06.878Z,45.44
2018-09-03T01:43:06.957Z,45.25
2018-09-03T01:44:07.233Z,45.54
2018-09-03T01:45:06.969Z,45.34
2018-09-03T01:46:07.004Z,45.44
2018-09-03T01:47:07.083Z,45.15
2018-09-03T01:48:07.114Z,45.25
2018-09-03T01:49:07.099Z,45.05
2018-09-03T01:50:07.433Z,45.15
2018-09-03T01:51:07.168Z,45.34
2018-09-03T01:52:07.241Z,45.05
2018-09-03T01:53:07.233Z,44.86
2018-09-03T01:54:07.314Z,45.54
2018-09-03T01:55:07.347Z,45.15
2018-09-03T01:56:07.633Z,45.05
2018-09-03T01:57:07.355Z,45.05
2018-09-03T01:58:07.445Z,45.34
2018-09-03T01:59:07.486Z,45.44
2018-09-03T02:00:07.459Z,45.25
2018-09-03T02:01:07.544Z,45.34
2018-09-03T02:02:07.822Z,45.54
2018-09-03T02:03:07.559Z,45.25
2018-09-03T02:04:07.590Z,45.15
2018-09-03T02:05:07.625Z,45.54
2018-09-03T02:06:07.655Z,45.54
2018-09-03T02:07:07.740Z,45.34
2018-09-03T02:08:07.769Z,45.44
2018-09-03T02:09:08.058Z,45.92
2018-09-03T02:10:07.786Z,45.83
2018-09-03T02:11:07.866Z,45.83
2018-09-03T02:12:07.849Z,46.12
2018-09-03T02:13:07.941Z,45.81
2018-09-03T02:14:07.929Z,45.73
2018-09-03T02:15:07.953Z,45.73
2018-09-03T02:16:08.288Z,46.12
2018-09-03T02:17:08.067Z,46.12
2018-09-03T02:18:08.106Z,45.73
2018-09-03T02:19:08.085Z,45.92
2018-09-03T02:20:08.170Z,45.73
2018-09-03T02:21:08.148Z,45.83
2018-09-03T02:22:08.185Z,45.64
2018-09-03T02:23:08.521Z,45.73
2018-09-03T02:24:08.260Z,45.92
2018-09-03T02:25:08.330Z,46.02
2018-09-03T02:26:08.314Z,45.92
2018-09-03T02:27:08.350Z,45.92
2018-09-03T02:28:08.432Z,45.83
2018-09-03T02:29:08.468Z,46.02
2018-09-03T02:30:08.755Z,46.02
2018-09-03T02:31:08.490Z,45.83
2018-09-03T02:32:08.571Z,45.83
2018-09-03T02:33:08.539Z,45.92
2018-09-03T02:34:08.577Z,46.02
2018-09-03T02:35:08.658Z,46.12
2018-09-03T02:36:08.693Z,46.12
2018-09-03T02:37:08.975Z,45.92
2018-09-03T02:38:08.756Z,46.12
2018-09-03T02:39:08.746Z,45.92
2018-09-03T02:40:08.826Z,45.92
2018-09-03T02:41:08.807Z,45.90
2018-09-03T02:42:08.842Z,45.92
2018-09-03T02:43:08.918Z,46.12
2018-09-03T02:44:09.207Z,46.02
2018-09-03T02:45:09.004Z,46.02
2018-09-03T02:46:09.020Z,45.64
2018-09-03T02:47:09.003Z,45.73
2018-09-03T02:48:09.091Z,45.73
2018-09-03T02:49:09.075Z,45.83
2018-09-03T02:50:09.156Z,45.73
2018-09-03T02:51:09.436Z,45.83
2018-09-03T02:52:09.215Z,45.83
2018-09-03T02:53:09.204Z,45.71
2018-09-03T02:54:09.283Z,46.02
2018-09-03T02:55:09.311Z,46.12
2018-09-03T02:56:09.294Z,45.92
2018-09-03T02:57:09.383Z,46.22
2018-09-03T02:58:09.715Z,46.22
2018-09-03T02:59:09.468Z,46.12
2018-09-03T03:00:09.482Z,45.92
2018-09-03T03:01:09.461Z,46.02
2018-09-03T03:02:09.492Z,46.02
2018-09-03T03:03:09.590Z,46.22
2018-09-03T03:04:09.609Z,46.22
2018-09-03T03:05:09.894Z,46.22
2018-09-03T03:06:09.621Z,46.31
2018-09-03T03:07:09.660Z,46.12
2018-09-03T03:08:09.748Z,46.12
2018-09-03T03:09:09.731Z,46.02
2018-09-03T03:12:09.828Z,46.09
2018-09-03T03:13:10.204Z,46.22
2018-09-03T03:14:09.946Z,46.31
2018-09-03T03:15:09.941Z,46.41
2018-09-03T03:16:10.003Z,46.22
2018-09-03T03:17:09.985Z,46.41
2018-09-03T03:18:10.018Z,46.22
2018-09-03T03:19:10.101Z,46.31
2018-09-03T03:20:10.386Z,46.51
2018-09-03T03:21:10.117Z,46.51
2018-09-03T03:22:10.155Z,46.31
2018-09-03T03:23:10.236Z,46.29
2018-09-03T03:24:10.215Z,46.51
2018-09-03T03:25:10.301Z,46.31
2018-09-03T03:26:10.335Z,46.48
2018-09-03T03:27:10.620Z,46.31
2018-09-03T03:28:10.356Z,46.48
2018-09-03T03:29:10.381Z,46.29
2018-09-03T03:30:10.459Z,46.39
2018-09-03T03:31:10.448Z,46.39
2018-09-03T03:32:10.535Z,46.39
2018-09-03T03:33:10.514Z,46.19
2018-09-03T03:34:10.842Z,46.29
2018-09-03T03:35:10.628Z,46.19
2018-09-03T03:36:10.660Z,46.39
2018-09-03T03:37:10.641Z,46.29
2018-09-03T03:38:10.727Z,46.29
2018-09-03T03:39:10.706Z,46.19
2018-09-03T03:40:10.795Z,46.19
2018-09-03T03:41:11.079Z,46.09
2018-09-03T03:42:10.865Z,46.39
2018-09-03T03:43:10.840Z,46.48
2018-09-03T03:44:10.875Z,46.58
2018-09-03T03:45:10.951Z,46.77
2018-09-03T03:46:10.935Z,46.67
2018-09-03T03:47:11.021Z,46.77
2018-09-03T03:48:11.308Z,46.67
2018-09-03T03:49:11.036Z,46.67
2018-09-03T03:50:11.121Z,46.67
2018-09-03T03:51:11.111Z,46.77
2018-09-03T03:52:11.138Z,46.67
2018-09-03T03:53:11.213Z,46.58
2018-09-03T03:54:11.545Z,46.77
2018-09-03T03:55:11.287Z,46.77
2018-09-03T03:56:11.262Z,46.58
2018-09-03T03:57:11.298Z,47.06
2018-09-03T03:58:11.382Z,47.06
2018-09-03T03:59:11.378Z,46.77
2018-09-03T04:00:11.750Z,46.77
2018-09-03T04:01:11.424Z,46.67
2018-09-03T04:02:11.509Z,47.26
2018-09-03T04:03:11.495Z,47.36
2018-09-03T04:04:11.530Z,46.77
2018-09-03T04:05:11.611Z,47.26
2018-09-03T04:06:11.896Z,47.26
2018-09-03T04:07:11.692Z,47.26
2018-09-03T04:08:11.653Z,47.16
2018-09-03T04:09:11.743Z,46.87
2018-09-03T04:10:11.772Z,47.36
2018-09-03T04:11:11.753Z,47.26
2018-09-03T04:12:11.834Z,47.36
2018-09-03T04:13:12.126Z,47.26
2018-09-03T04:14:11.900Z,47.36
2018-09-03T04:15:11.943Z,47.26
2018-09-03T04:16:11.972Z,47.16
2018-09-03T04:17:11.953Z,47.16
2018-09-03T04:18:11.983Z,47.16
2018-09-03T04:19:12.052Z,47.16
2018-09-03T04:20:12.347Z,46.67
2018-09-03T04:21:12.138Z,47.36
2018-09-03T04:22:12.111Z,47.16
2018-09-03T04:23:12.330Z,46.97
2018-09-03T04:24:12.176Z,47.06
2018-09-03T04:25:12.213Z,47.06
2018-09-03T04:26:12.300Z,47.06
2018-09-03T04:27:12.627Z,47.36
2018-09-03T04:28:12.360Z,47.26
2018-09-03T04:29:12.347Z,47.36
2018-09-03T04:30:12.372Z,46.58
2018-09-03T04:31:12.411Z,46.77
2018-09-03T04:33:12.528Z,47.06
2018-09-03T04:34:12.819Z,46.58
2018-09-03T04:35:12.543Z,46.87
2018-09-03T04:36:12.626Z,47.26
2018-09-03T04:37:12.650Z,47.36
2018-09-03T04:38:12.686Z,47.16
2018-09-03T04:39:12.668Z,47.64
2018-09-03T04:40:12.704Z,47.55
2018-09-03T04:41:13.035Z,47.84
2018-09-03T04:42:12.770Z,47.74
2018-09-03T04:43:12.854Z,47.74
2018-09-03T04:44:12.885Z,47.55
2018-09-03T04:45:12.870Z,47.45
2018-09-03T04:46:12.901Z,47.45
2018-09-03T04:47:12.988Z,47.45
2018-09-03T04:48:13.408Z,47.55
2018-09-03T04:49:13.004Z,47.64
2018-09-03T04:50:13.037Z,47.74
2018-09-03T04:51:13.110Z,47.74
2018-09-03T04:52:13.096Z,47.64
2018-09-03T04:53:13.174Z,47.74
2018-09-03T04:54:13.158Z,47.74
2018-09-03T04:55:13.586Z,47.74
2018-09-03T04:56:13.225Z,47.74
2018-09-03T04:57:13.259Z,47.64
2018-09-03T04:58:13.340Z,47.64
2018-09-03T04:59:13.328Z,47.74
2018-09-03T05:00:13.406Z,47.64
2018-09-03T05:01:13.397Z,47.64
2018-09-03T05:02:13.730Z,47.64
2018-09-03T05:03:13.459Z,47.84
2018-09-03T05:04:13.543Z,47.45
2018-09-03T05:05:13.572Z,47.55
2018-09-03T05:06:13.608Z,47.74
2018-09-03T05:07:13.585Z,47.74
2018-09-03T05:08:13.615Z,47.74
2018-09-03T05:09:14.009Z,47.64
2018-09-03T05:10:13.683Z,47.64
2018-09-03T05:11:13.772Z,47.55
2018-09-03T05:12:13.796Z,47.64
2018-09-03T05:13:13.784Z,47.16
2018-09-03T05:14:13.827Z,47.26
2018-09-03T05:15:13.846Z,47.55
2018-09-03T05:16:14.182Z,47.55
2018-09-03T05:17:13.914Z,47.94
2018-09-03T05:18:13.997Z,47.74
2018-09-03T05:19:13.979Z,47.64
2018-09-03T05:20:14.010Z,47.94
2018-09-03T05:21:14.102Z,47.55
2018-09-03T05:22:14.125Z,47.84
2018-09-03T05:23:14.409Z,47.74
2018-09-03T05:24:14.138Z,47.84
2018-09-03T05:25:14.171Z,47.55
2018-09-03T05:26:14.205Z,47.55
2018-09-03T05:27:14.286Z,47.45
2018-09-03T05:28:14.325Z,47.36
2018-09-03T05:29:14.306Z,47.74
2018-09-03T05:30:14.698Z,47.26
2018-09-03T05:31:14.555Z,47.36
2018-09-03T05:32:14.405Z,47.36
2018-09-03T05:33:14.493Z,47.74
2018-09-03T05:34:14.521Z,47.74
2018-09-03T05:35:14.501Z,47.64
2018-09-03T05:36:14.846Z,47.36
2018-09-03T05:37:14.611Z,47.28
2018-09-03T05:38:14.673Z,47.36
2018-09-03T05:39:14.688Z,47.09
2018-09-03T05:40:14.712Z,47.16
2018-09-03T05:41:14.699Z,47.19
2018-09-03T05:42:14.725Z,47.19
2018-09-03T05:43:14.899Z,47.38
2018-09-03T05:44:14.842Z,47.19
2018-09-03T05:45:14.860Z,47.19
2018-09-03T05:46:14.859Z,46.89
2018-09-03T05:47:14.954Z,46.70
2018-09-03T05:48:15.227Z,47.09
2018-09-03T05:49:15.027Z,47.09
2018-09-03T05:50:15.118Z,46.70
2018-09-03T05:51:15.076Z,46.70
2018-09-03T05:52:15.050Z,46.70
2018-09-03T05:53:15.137Z,46.80
2018-09-03T05:54:15.117Z,46.70
2018-09-03T05:55:15.506Z,46.70
2018-09-03T05:56:15.180Z,46.80
2018-09-03T05:57:15.220Z,46.70
2018-09-03T05:58:15.251Z,46.70
2018-09-03T05:59:15.374Z,46.60
2018-09-03T06:00:15.369Z,46.41
2018-09-03T06:01:15.350Z,46.60
2018-09-03T06:02:15.441Z,46.41
2018-09-03T06:03:15.467Z,46.41
2018-09-03T06:04:15.447Z,46.31
2018-09-03T06:05:15.539Z,46.41
2018-09-03T06:06:15.561Z,46.22
2018-09-03T06:07:15.544Z,46.31
2018-09-03T06:08:15.629Z,46.31
2018-09-03T06:09:15.615Z,46.31
2018-09-03T06:10:15.696Z,46.41
2018-09-03T06:11:15.848Z,46.31
2018-09-03T06:12:15.753Z,46.51
2018-09-03T06:13:15.738Z,46.41
2018-09-03T06:14:16.119Z,46.41
2018-09-03T06:15:15.807Z,46.31
2018-09-03T06:16:15.898Z,46.31
2018-09-03T06:17:15.872Z,46.41
2018-09-03T06:18:15.949Z,46.22
2018-09-03T06:19:15.946Z,46.22
2018-09-03T06:20:16.014Z,46.12
2018-09-03T06:21:16.004Z,46.22
2018-09-03T06:22:16.041Z,46.02
2018-09-03T06:23:16.121Z,45.92
2018-09-03T06:24:16.149Z,46.22
2018-09-03T06:25:16.130Z,46.12
2018-09-03T06:26:16.160Z,46.12
2018-09-03T06:27:16.494Z,46.12
2018-09-03T06:28:16.232Z,46.12
2018-09-03T06:29:16.312Z,45.73
2018-09-03T06:30:16.354Z,45.92
2018-09-03T06:31:16.374Z,45.73
2018-09-03T06:32:16.419Z,45.64
2018-09-03T06:33:16.692Z,45.75
2018-09-03T06:34:16.425Z,45.95
2018-09-03T06:35:16.465Z,45.92
2018-09-03T06:36:16.554Z,45.95
2018-09-03T06:37:16.535Z,45.92
2018-09-03T06:38:16.621Z,45.85
2018-09-03T06:39:17.061Z,46.02
2018-09-03T06:40:16.689Z,45.83
2018-09-03T06:41:16.659Z,46.02
2018-09-03T06:42:16.687Z,46.14
2018-09-03T06:43:16.774Z,46.12
2018-09-03T06:44:16.803Z,45.73
2018-09-03T06:45:16.782Z,45.73
2018-09-03T06:46:17.120Z,45.92
2018-09-03T06:47:16.853Z,45.54
2018-09-03T06:48:16.886Z,45.65
2018-09-03T06:49:16.972Z,45.65
2018-09-03T06:50:17.005Z,45.56
2018-09-03T06:51:16.980Z,45.37
2018-09-03T06:52:17.117Z,45.27
2018-09-03T06:53:17.349Z,45.47
2018-09-03T06:54:17.132Z,45.37
2018-09-03T06:55:17.167Z,45.27
2018-09-03T06:56:17.191Z,45.27
2018-09-03T06:57:17.179Z,45.27
2018-09-03T06:58:17.270Z,45.17
2018-09-03T06:59:17.247Z,45.47
2018-09-03T07:00:17.575Z,45.37
2018-09-03T07:01:17.315Z,44.98
2018-09-03T07:02:17.395Z,45.47
2018-09-03T07:03:17.372Z,45.27
2018-09-03T07:04:17.463Z,45.27
2018-09-03T07:05:17.507Z,45.27
2018-09-03T07:06:17.529Z,45.07
2018-09-03T07:07:17.811Z,45.37
2018-09-03T07:08:17.596Z,45.17
2018-09-03T07:09:17.634Z,45.07
2018-09-03T07:10:17.613Z,45.17
2018-09-03T07:11:17.693Z,44.98
2018-09-03T07:12:17.726Z,45.17
2018-09-03T07:13:17.809Z,45.27
2018-09-03T07:14:18.056Z,44.98
2018-09-03T07:15:18.182Z,44.88
2018-09-03T07:16:18.187Z,44.98
2018-09-03T07:17:18.110Z,44.78
2018-09-03T07:18:18.102Z,44.68
2018-09-03T07:19:18.240Z,44.68
2018-09-03T07:20:17.982Z,44.78
2018-09-03T07:21:18.266Z,44.59
2018-09-03T07:22:18.059Z,44.59
2018-09-03T07:23:18.030Z,44.78
2018-09-03T07:24:18.124Z,44.68
2018-09-03T07:25:18.144Z,44.78
2018-09-03T07:26:18.183Z,44.78
2018-09-03T07:27:18.212Z,44.90
2018-09-03T07:28:18.496Z,44.88
2018-09-03T07:29:18.235Z,44.78
2018-09-03T07:30:18.319Z,44.78
2018-09-03T07:31:18.300Z,44.59
2018-09-03T07:32:18.377Z,44.68
2018-09-03T07:33:18.377Z,44.51
2018-09-03T07:34:18.454Z,44.49
2018-09-03T07:35:18.741Z,44.49
2018-09-03T07:36:18.561Z,44.49
2018-09-03T07:37:18.550Z,44.68
2018-09-03T07:38:18.695Z,44.49
2018-09-03T07:39:18.568Z,44.49
2018-09-03T07:40:18.648Z,44.49
2018-09-03T07:41:18.632Z,44.51
2018-09-03T07:42:18.972Z,44.30
2018-09-03T07:43:18.701Z,44.23
2018-09-03T07:44:18.779Z,44.32
2018-09-03T07:45:18.765Z,44.30
2018-09-03T07:46:18.804Z,44.23
2018-09-03T07:47:18.886Z,44.30
2018-09-03T07:48:18.906Z,44.23
2018-09-03T07:49:19.198Z,44.32
2018-09-03T07:50:18.952Z,44.32
2018-09-03T07:51:18.962Z,44.42
2018-09-03T07:52:18.997Z,44.51
2018-09-03T07:53:19.077Z,44.61
2018-09-03T07:54:19.055Z,44.51
2018-09-03T07:55:19.091Z,44.61
2018-09-03T07:56:19.582Z,44.51
2018-09-03T07:57:19.169Z,44.49
2018-09-03T07:58:19.242Z,44.51
2018-09-03T07:59:19.279Z,44.61
2018-09-03T08:00:19.309Z,44.61
2018-09-03T08:01:19.310Z,44.51
2018-09-03T08:02:19.319Z,44.51
2018-09-03T08:03:19.717Z,44.42
2018-09-03T08:04:19.444Z,44.51
2018-09-03T08:05:19.428Z,44.61
2018-09-03T08:06:19.510Z,44.71
2018-09-03T08:07:19.579Z,44.32
2018-09-03T08:08:19.569Z,44.32
2018-09-03T08:09:19.604Z,44.61
2018-09-03T08:10:19.640Z,44.61
2018-09-03T08:11:19.624Z,44.61
2018-09-03T08:12:19.658Z,44.61
2018-09-03T08:13:19.740Z,44.61
2018-09-03T08:14:19.769Z,44.61
2018-09-03T08:15:19.756Z,44.13
2018-09-03T08:16:20.086Z,44.61
2018-09-03T08:17:19.822Z,43.93
2018-09-03T08:18:19.858Z,44.42
2018-09-03T08:19:19.935Z,44.32
2018-09-03T08:20:19.924Z,44.32
2018-09-03T08:21:20.006Z,44.71
2018-09-03T08:22:20.041Z,44.61
2018-09-03T08:23:20.076Z,44.23
2018-09-03T08:24:20.051Z,44.23
2018-09-03T08:25:20.102Z,44.32
2018-09-03T08:26:20.174Z,44.13
2018-09-03T08:27:20.207Z,44.10
2018-09-03T08:28:20.240Z,44.23
2018-09-03T08:29:20.225Z,44.42
2018-09-03T08:30:20.317Z,44.23
2018-09-03T08:31:20.292Z,44.30
2018-09-03T08:32:20.377Z,44.32
2018-09-03T08:33:20.357Z,44.40
2018-09-03T08:34:20.686Z,44.32
2018-09-03T08:35:20.433Z,44.42
2018-09-03T08:36:20.504Z,44.40
2018-09-03T08:37:20.572Z,44.23
2018-09-03T08:38:20.672Z,44.03
2018-09-03T08:39:21.438Z,44.03
2018-09-03T08:40:20.640Z,43.93
2018-09-03T08:41:20.677Z,44.23
2018-09-03T08:42:20.706Z,43.93
2018-09-03T08:43:20.749Z,43.93
2018-09-03T08:44:20.734Z,43.93
2018-09-03T08:45:20.803Z,43.84
2018-09-03T08:46:20.786Z,44.42
2018-09-03T08:47:20.873Z,43.74
2018-09-03T08:48:20.903Z,43.74
2018-09-03T08:49:20.890Z,43.74
2018-09-03T08:50:20.979Z,43.93
2018-09-03T08:51:21.036Z,43.93
2018-09-03T08:52:21.045Z,43.74
2018-09-03T08:53:21.325Z,43.84
2018-09-03T08:54:21.115Z,43.84
2018-09-03T08:55:21.104Z,43.84
2018-09-03T08:56:21.189Z,43.84
2018-09-03T08:57:21.212Z,43.54
2018-09-03T08:58:21.239Z,43.93
2018-09-03T08:59:21.529Z,43.74
2018-09-03T09:00:21.314Z,43.74
2018-09-03T09:01:21.341Z,43.84
2018-09-03T09:02:21.389Z,43.74
2018-09-03T09:03:21.366Z,43.74
2018-09-03T09:04:21.393Z,43.64
2018-09-03T09:05:21.777Z,43.93
2018-09-03T09:06:21.516Z,43.54
2018-09-03T09:07:21.549Z,43.84
2018-09-03T09:08:21.582Z,43.45
2018-09-03T09:09:21.561Z,43.64
2018-09-03T09:10:21.651Z,43.45
2018-09-03T09:11:21.930Z,43.64
2018-09-03T09:12:21.707Z,43.64
2018-09-03T09:13:21.696Z,43.54
2018-09-03T09:14:21.893Z,43.54
2018-09-03T09:15:21.811Z,43.64
2018-09-03T09:16:21.855Z,43.54
2018-09-03T09:17:21.832Z,43.45
2018-09-03T09:18:22.170Z,43.35
2018-09-03T09:20:21.936Z,43.35
2018-09-03T09:21:22.018Z,43.45
2018-09-03T09:22:22.047Z,43.35
2018-09-03T09:23:22.088Z,43.45
2018-09-03T09:24:22.073Z,43.35
2018-09-03T09:25:22.396Z,43.35
2018-09-03T09:26:22.187Z,43.45
2018-09-03T09:27:22.174Z,43.54
2018-09-03T09:28:22.245Z,43.35
2018-09-03T09:29:22.244Z,43.54
2018-09-03T09:30:22.316Z,43.54
2018-09-03T09:31:22.307Z,43.64
2018-09-03T09:32:22.336Z,43.45
2018-09-03T09:33:22.421Z,43.45
2018-09-03T09:34:22.471Z,43.45
2018-09-03T09:35:22.432Z,43.84
2018-09-03T09:36:22.471Z,43.54
2018-09-03T09:37:22.549Z,43.64
2018-09-03T09:38:22.856Z,43.74
2018-09-03T09:39:22.617Z,43.74
2018-09-03T09:40:22.656Z,43.74
2018-09-03T09:41:22.708Z,43.93
2018-09-03T09:42:22.726Z,43.84
2018-09-03T09:44:22.883Z,43.93
2018-09-03T09:45:23.071Z,43.93
2018-09-03T09:46:22.865Z,44.03
2018-09-03T09:47:22.842Z,43.74
2018-09-03T09:48:22.900Z,43.93
2018-09-03T09:49:22.951Z,43.74
2018-09-03T09:50:22.940Z,43.93
2018-09-03T09:51:23.019Z,43.74
2018-09-03T09:52:23.012Z,43.64
2018-09-03T09:53:23.035Z,43.93
2018-09-03T09:54:23.178Z,43.93
2018-09-03T09:55:23.104Z,43.93
2018-09-03T09:56:23.393Z,43.74
2018-09-03T09:57:23.176Z,43.74
2018-09-03T09:58:23.515Z,44.13
2018-09-03T09:59:23.251Z,43.84
2018-09-03T10:00:23.276Z,43.74
2018-09-03T10:01:23.365Z,43.74
2018-09-03T10:02:23.448Z,43.74
2018-09-03T10:03:23.428Z,43.84
2018-09-03T10:04:23.417Z,43.84
2018-09-03T10:05:23.446Z,43.64
2018-09-03T10:06:23.530Z,43.35
2018-09-03T10:07:23.518Z,43.26
2018-09-03T10:08:23.614Z,43.54
2018-09-03T10:09:23.648Z,43.35
2018-09-03T10:10:23.670Z,43.64
2018-09-03T10:11:23.649Z,43.45
2018-09-03T10:12:23.730Z,43.64
2018-09-03T10:13:23.736Z,43.16
2018-09-03T10:14:23.743Z,43.35
2018-09-03T10:15:23.839Z,43.26
2018-09-03T10:16:24.119Z,43.26
2018-09-03T10:17:23.899Z,43.18
2018-09-03T10:18:23.935Z,43.37
2018-09-03T10:19:23.962Z,43.37
2018-09-03T10:20:24.037Z,43.37
2018-09-03T10:21:24.031Z,43.47
2018-09-03T10:22:24.016Z,43.37
2018-09-03T10:23:24.354Z,43.47
2018-09-03T10:24:24.093Z,43.47
2018-09-03T10:25:24.173Z,43.27
2018-09-03T10:26:24.215Z,43.37
2018-09-03T10:27:24.190Z,43.27
2018-09-03T10:28:24.271Z,43.27
2018-09-03T10:29:24.257Z,43.66
2018-09-03T10:30:24.296Z,43.18
2018-09-03T10:31:24.380Z,43.57
2018-09-03T10:32:24.364Z,43.66
2018-09-03T10:33:24.436Z,43.66
2018-09-03T10:34:24.476Z,43.08
2018-09-03T10:35:24.505Z,43.08
2018-09-03T10:36:24.541Z,42.99
2018-09-03T10:37:24.584Z,42.99
2018-09-03T10:38:24.614Z,43.08
2018-09-03T10:40:24.636Z,43.08
2018-09-03T10:41:24.712Z,43.08
2018-09-03T10:42:24.696Z,43.18
2018-09-03T10:43:24.789Z,43.18
2018-09-03T10:44:24.817Z,43.08
2018-09-03T10:45:24.803Z,43.18
2018-09-03T10:46:24.888Z,43.18
2018-09-03T10:47:25.044Z,43.27
2018-09-03T10:48:25.246Z,43.08
2018-09-03T10:49:24.977Z,43.08
2018-09-03T10:50:25.024Z,43.18
2018-09-03T10:51:25.005Z,42.99
2018-09-03T10:52:25.054Z,42.99
2018-09-03T10:53:25.128Z,42.89
2018-09-03T10:54:25.474Z,43.18
2018-09-03T10:55:25.188Z,42.99
2018-09-03T10:56:25.228Z,42.89
2018-09-03T10:57:25.261Z,42.60
2018-09-03T10:58:25.294Z,42.89
2018-09-03T10:59:25.272Z,42.69
2018-09-03T11:00:25.358Z,42.89
2018-09-03T11:01:25.408Z,42.60
2018-09-03T11:02:25.373Z,42.79
2018-09-03T11:03:25.463Z,42.60
2018-09-03T11:04:25.496Z,42.69
2018-09-03T11:05:25.627Z,42.50
2018-09-03T11:06:25.584Z,42.61
2018-09-03T11:07:25.902Z,42.71
2018-09-03T11:08:25.580Z,42.61
2018-09-03T11:09:25.622Z,42.60
2018-09-03T11:10:25.683Z,42.61
2018-09-03T11:11:25.733Z,42.50
2018-09-03T11:12:25.829Z,42.60
2018-09-03T11:13:25.770Z,42.71
2018-09-03T11:14:26.094Z,42.61
2018-09-03T11:15:25.912Z,42.61
2018-09-03T11:16:25.855Z,42.71
2018-09-03T11:17:25.994Z,42.71
2018-09-03T11:18:25.976Z,42.61
2018-09-03T11:19:26.010Z,42.71
2018-09-03T11:20:25.987Z,42.33
2018-09-03T11:21:26.225Z,42.33
2018-09-03T11:22:26.278Z,42.43
2018-09-03T11:23:26.142Z,42.43
2018-09-03T11:24:26.183Z,42.33
2018-09-03T11:25:26.166Z,42.23
2018-09-03T11:26:26.198Z,42.43
2018-09-03T11:27:26.554Z,42.33
2018-09-03T11:28:26.319Z,42.33
2018-09-03T11:29:26.315Z,42.61
2018-09-03T11:30:26.421Z,42.52
2018-09-03T11:31:26.374Z,42.23
2018-09-03T11:32:26.406Z,42.43
2018-09-03T11:33:26.493Z,42.52
2018-09-03T11:34:26.824Z,42.43
2018-09-03T11:36:26.594Z,42.13
2018-09-03T11:37:26.575Z,42.52
2018-09-03T11:38:26.619Z,41.94
2018-09-03T11:39:26.701Z,42.61
2018-09-03T11:40:26.986Z,42.13
2018-09-03T11:41:26.718Z,42.03
2018-09-03T11:42:26.744Z,42.03
2018-09-03T11:43:26.881Z,42.13
2018-09-03T11:44:26.864Z,42.43
2018-09-03T11:45:26.904Z,42.33
2018-09-03T11:46:27.241Z,42.13
2018-09-03T11:47:26.920Z,42.71
2018-09-03T11:48:26.963Z,42.33
2018-09-03T11:49:26.993Z,42.43
2018-09-03T11:50:27.077Z,43.20
2018-09-03T11:51:27.066Z,42.23
2018-09-03T11:52:27.401Z,42.23
2018-09-03T11:53:27.175Z,42.03
2018-09-03T11:54:27.192Z,42.43
2018-09-03T11:55:27.239Z,42.13
2018-09-03T11:56:27.285Z,42.23
2018-09-03T11:57:27.318Z,42.33
2018-09-03T11:58:27.345Z,42.43
2018-09-03T11:59:27.637Z,42.61
2018-09-03T12:00:27.495Z,42.23
2018-09-03T12:01:27.448Z,42.13
2018-09-03T12:02:27.487Z,42.43
2018-09-03T12:03:27.526Z,42.13
2018-09-03T12:04:27.555Z,42.23
2018-09-03T12:05:27.606Z,42.23
2018-09-03T12:06:27.929Z,42.33
2018-09-03T12:07:27.620Z,42.23
2018-09-03T12:08:27.700Z,42.33
2018-09-03T12:09:27.722Z,42.33
2018-09-03T12:10:27.760Z,42.33
2018-09-03T12:11:27.740Z,42.23
2018-09-03T12:12:27.823Z,42.23
2018-09-03T12:13:28.173Z,42.33
2018-09-03T12:14:27.857Z,42.33
2018-09-03T12:15:27.930Z,42.23
2018-09-03T12:16:27.991Z,42.23
2018-09-03T12:17:28.022Z,42.13
2018-09-03T12:18:28.086Z,42.33
2018-09-03T12:19:28.070Z,42.13
2018-09-03T12:20:28.063Z,42.33
2018-09-03T12:21:28.089Z,42.33
2018-09-03T12:22:28.134Z,42.43
2018-09-03T12:23:28.203Z,42.13
2018-09-03T12:24:28.250Z,42.43
2018-09-03T12:25:28.243Z,42.81
2018-09-03T12:26:28.611Z,42.52
2018-09-03T12:27:28.358Z,42.61
2018-09-03T12:28:28.379Z,42.61
2018-09-03T12:29:28.393Z,42.52
2018-09-03T12:30:28.453Z,42.43
2018-09-03T12:31:28.555Z,42.61
2018-09-03T12:32:28.514Z,42.71
2018-09-03T12:33:28.558Z,42.52
2018-09-03T12:34:28.548Z,42.23
2018-09-03T12:35:28.630Z,42.61
2018-09-03T12:36:28.684Z,42.71
2018-09-03T12:37:28.651Z,42.52
2018-09-03T12:38:28.675Z,42.23
2018-09-03T12:39:29.021Z,42.71
2018-09-03T12:40:28.794Z,42.52
2018-09-03T12:41:28.834Z,42.13
2018-09-03T12:42:28.823Z,42.33
2018-09-03T12:43:28.913Z,42.23
2018-09-03T12:44:28.880Z,42.33
2018-09-03T12:45:29.277Z,42.13
2018-09-03T12:46:29.058Z,42.33
2018-09-03T12:47:28.986Z,42.33
2018-09-03T12:48:29.067Z,42.23
2018-09-03T12:49:29.159Z,42.43
2018-09-03T12:50:29.140Z,42.43
2018-09-03T12:51:29.426Z,42.43
2018-09-03T12:52:29.158Z,42.33
2018-09-03T12:53:29.242Z,42.43
2018-09-03T12:54:29.227Z,42.43
2018-09-03T12:56:29.355Z,42.43
2018-09-03T12:57:29.675Z,42.71
2018-09-03T12:58:29.431Z,42.13
2018-09-03T12:59:29.403Z,42.43
2018-09-03T13:00:29.439Z,42.33
2018-09-03T13:01:29.470Z,42.43
2018-09-03T13:02:29.552Z,42.23
2018-09-03T13:03:29.585Z,42.33